Time;durP1;ratioP1;P1;durP2;ratioP2;P2;SDS_P1;SDS_P2;PMS_P1;PMS_P2;Temp;Humidity;BMP_temperature;BMP_pressure;BME280_temperature;BME280_humidity;BME280_pressure;Samples;Min_cycle;Max_cycle;Signal;HPM_P1;HPM_P2
2022/06/30 00:00:29;;;;;;;9.40;1.80;;;;;;;19.61;77.95;100167.77;106227;1283;25971;-78
2022/06/30 00:03:09;;;;;;;15.70;2.30;;;;;;;19.66;78.35;100183.13;107421;1273;23773;-76
2022/06/30 00:05:42;;;;;;;12.10;2.60;;;;;;;19.65;78.73;100133.88;106832;1272;22570;-79
2022/06/30 00:08:13;;;;;;;12.20;2.20;;;;;;;19.57;78.74;100146.65;106808;1272;22679;-77
2022/06/30 00:10:44;;;;;;;16.60;2.50;;;;;;;19.52;78.93;100146.34;102639;1271;5355235;-79
2022/06/30 00:13:16;;;;;;;8.50;1.70;;;;;;;19.52;79.58;100115.35;107025;1271;24212;-77
2022/06/30 00:15:48;;;;;;;4.30;1.40;;;;;;;19.53;79.94;100051.94;107333;1271;22562;-77
2022/06/30 00:18:19;;;;;;;10.00;1.70;;;;;;;19.46;80.43;100033.34;106875;1271;22741;-77
2022/06/30 00:20:51;;;;;;;5.40;1.20;;;;;;;19.39;80.45;100058.13;106914;1271;23773;-78
2022/06/30 00:23:22;;;;;;;7.70;1.40;;;;;;;19.33;80.66;100057.10;106986;1271;23746;-79
2022/06/30 00:25:54;;;;;;;9.30;1.30;;;;;;;19.31;81.13;100049.83;107073;1271;22623;-79
2022/06/30 00:28:26;;;;;;;9.30;1.60;;;;;;;19.32;81.20;100069.16;107570;1271;22549;-79
2022/06/30 00:30:58;;;;;;;9.10;1.40;;;;;;;19.29;81.03;100076.78;107453;1271;22595;-78
2022/06/30 00:33:32;;;;;;;7.20;1.00;;;;;;;19.26;81.25;100071.83;106992;1271;22564;-78
2022/06/30 00:36:03;;;;;;;8.40;1.20;;;;;;;19.28;81.42;100056.98;106954;1271;23978;-77
2022/06/30 00:38:34;;;;;;;3.30;0.90;;;;;;;19.34;81.94;100040.16;106988;1269;22661;-78
2022/06/30 00:41:07;;;;;;;8.70;1.60;;;;;;;19.40;81.83;100033.98;107016;1271;23840;-78
2022/06/30 00:43:49;;;;;;;7.00;1.20;;;;;;;19.42;81.69;100038.95;106961;1271;24236;-77
2022/06/30 00:46:20;;;;;;;6.50;1.20;;;;;;;19.36;81.69;100052.38;106942;1271;22626;-78
2022/06/30 00:48:54;;;;;;;7.40;1.30;;;;;;;19.35;81.88;100056.35;107092;1271;22537;-79
2022/06/30 00:51:26;;;;;;;9.50;2.00;;;;;;;19.36;81.89;100062.15;107196;1271;26467;-78
2022/06/30 00:54:04;;;;;;;9.40;2.50;;;;;;;19.39;82.09;100074.05;107042;1271;24239;-78
2022/06/30 00:56:38;;;;;;;7.30;1.70;;;;;;;19.37;82.39;100095.61;107085;1271;22578;-78
2022/06/30 00:59:14;;;;;;;5.50;1.30;;;;;;;19.32;82.60;100119.66;107104;1271;22583;-78
2022/06/30 01:01:47;;;;;;;11.50;1.30;;;;;;;19.27;82.72;100131.66;107491;1271;22529;-79
2022/06/30 01:04:20;;;;;;;5.80;1.10;;;;;;;19.30;82.88;100132.95;107474;1271;22564;-78
2022/06/30 01:06:54;;;;;;;4.90;1.00;;;;;;;19.32;83.03;100145.85;106958;1271;25539;-77
2022/06/30 01:15:08;;;;;;;7.10;1.30;;;;;;;19.21;83.58;100202.91;107078;1271;24242;-77
2022/06/30 01:17:40;;;;;;;7.60;1.30;;;;;;;19.24;83.68;100198.22;107259;1271;23994;-79
2022/06/30 01:24:18;;;;;;;4.90;1.20;;;;;;;19.26;84.21;100229.38;106941;1271;25317;-77
2022/06/30 01:26:56;;;;;;;8.60;1.70;;;;;;;19.20;84.29;100213.02;106799;1271;22606;-79
2022/06/30 01:29:28;;;;;;;8.00;1.70;;;;;;;19.16;84.51;100236.23;107035;1271;22531;-79
2022/06/30 01:31:59;;;;;;;11.90;2.20;;;;;;;19.15;84.68;100216.59;107382;1271;22517;-78
2022/06/30 01:34:31;;;;;;;8.30;2.20;;;;;;;19.17;84.78;100182.60;107099;1271;22581;-76
2022/06/30 01:37:02;;;;;;;8.90;2.20;;;;;;;19.17;85.02;100140.63;107140;1270;22715;-77
2022/06/30 01:39:34;;;;;;;8.90;1.90;;;;;;;19.11;84.89;100136.90;106657;1270;22608;-75
2022/06/30 01:42:08;;;;;;;10.00;1.60;;;;;;;19.09;85.31;100141.94;106544;1271;22521;-75
2022/06/30 01:44:41;;;;;;;8.70;1.60;;;;;;;19.05;85.39;100124.40;106538;1270;22553;-75
2022/06/30 01:47:13;;;;;;;10.50;2.80;;;;;;;19.03;85.75;100107.05;106520;1271;25343;-75
2022/06/30 01:49:44;;;;;;;11.00;1.80;;;;;;;19.01;85.77;100096.23;106543;1272;22694;-76
2022/06/30 01:52:15;;;;;;;6.30;1.60;;;;;;;19.05;86.39;100079.04;106490;1271;22671;-74
2022/06/30 01:54:46;;;;;;;8.50;2.00;;;;;;;19.08;86.18;100063.27;106583;1271;24301;-78
2022/06/30 01:57:17;;;;;;;6.40;1.60;;;;;;;19.07;86.11;100060.67;106990;1271;22610;-79
2022/06/30 01:59:51;;;;;;;5.40;1.50;;;;;;;19.09;86.11;100065.38;106985;1272;22531;-79
2022/06/30 02:02:23;;;;;;;9.00;2.10;;;;;;;19.10;86.04;100055.54;107135;1272;23761;-78
2022/06/30 02:04:57;;;;;;;6.10;1.30;;;;;;;19.11;86.18;100045.79;107236;1271;25380;-79
2022/06/30 02:07:32;;;;;;;9.40;1.60;;;;;;;19.13;86.21;100044.73;107653;1271;22738;-80
2022/06/30 02:10:03;;;;;;;8.60;1.90;;;;;;;19.14;86.26;100028.40;107712;1270;23210;-80
2022/06/30 02:12:48;;;;;;;12.40;2.10;;;;;;;19.16;86.31;100032.59;107733;1271;22845;-79
2022/06/30 02:15:22;;;;;;;7.00;1.40;;;;;;;19.17;86.31;100031.02;107616;1271;24239;-80
2022/06/30 02:17:55;;;;;;;6.90;1.50;;;;;;;19.15;86.26;100025.71;107735;1271;22714;-80
2022/06/30 02:20:30;;;;;;;6.70;1.60;;;;;;;19.13;86.26;100012.92;107606;1271;23425;-80
2022/06/30 02:23:03;;;;;;;7.20;1.60;;;;;;;19.12;86.25;100010.83;107636;1271;22528;-80
2022/06/30 02:25:38;;;;;;;11.20;1.90;;;;;;;19.12;86.30;100013.35;107707;1271;26506;-82
2022/06/30 02:28:10;;;;;;;9.80;1.60;;;;;;;19.10;86.34;100003.20;107831;1271;27307;-81
2022/06/30 02:30:41;;;;;;;5.90;1.60;;;;;;;19.09;86.35;100003.13;107806;1271;22513;-80
2022/06/30 02:33:13;;;;;;;5.70;1.30;;;;;;;19.08;86.43;99988.59;107816;1271;23354;-80
2022/06/30 02:35:47;;;;;;;6.20;1.40;;;;;;;19.06;86.42;99983.02;107655;1271;22764;-81
2022/06/30 02:38:20;;;;;;;7.20;1.40;;;;;;;19.04;86.52;99986.98;107698;1271;22627;-81
2022/06/30 02:40:51;;;;;;;5.60;1.50;;;;;;;18.99;86.55;99989.23;107645;1272;22563;-81
2022/06/30 02:43:23;;;;;;;8.40;1.90;;;;;;;18.99;86.73;99974.12;107746;1271;25557;-80
2022/06/30 02:45:55;;;;;;;5.30;1.50;;;;;;;18.99;86.76;99947.05;107698;1271;24273;-81
2022/06/30 02:48:26;;;;;;;7.50;1.90;;;;;;;18.96;86.80;99935.12;107659;1271;22522;-80
2022/06/30 02:50:57;;;;;;;9.30;1.80;;;;;;;18.93;87.00;99929.23;107557;1271;22821;-80
2022/06/30 02:53:28;;;;;;;6.70;2.10;;;;;;;18.89;87.22;99915.21;107716;1271;22827;-80
2022/06/30 02:55:59;;;;;;;4.90;1.40;;;;;;;18.86;87.35;99922.98;107601;1271;22588;-80
2022/06/30 02:58:30;;;;;;;7.90;1.40;;;;;;;18.84;87.49;99919.48;107639;1271;22593;-82
2022/06/30 03:01:01;;;;;;;8.20;1.70;;;;;;;18.81;87.91;99913.98;107626;1272;22538;-80
2022/06/30 03:03:32;;;;;;;6.70;1.60;;;;;;;18.78;88.09;99903.14;107763;1272;23293;-81
2022/06/30 03:06:05;;;;;;;5.10;1.60;;;;;;;18.76;88.07;99891.88;107627;1271;22532;-81
2022/06/30 03:08:37;;;;;;;6.90;1.80;;;;;;;18.74;88.50;99896.27;107714;1270;22582;-80
2022/06/30 03:11:08;;;;;;;8.80;1.50;;;;;;;18.72;88.50;99917.20;107597;1271;22681;-80
2022/06/30 03:13:39;;;;;;;5.50;1.80;;;;;;;18.71;88.16;99944.25;107652;1271;25385;-82
2022/06/30 03:16:10;;;;;;;4.70;1.50;;;;;;;18.71;88.32;99961.06;107739;1270;22558;-81
2022/06/30 03:18:43;;;;;;;8.30;1.70;;;;;;;18.71;88.25;99980.02;107628;1271;22485;-81
2022/06/30 03:21:14;;;;;;;6.50;2.30;;;;;;;18.71;88.09;99996.80;107633;1271;22593;-80
2022/06/30 03:23:46;;;;;;;7.40;1.80;;;;;;;18.72;88.05;100007.42;107731;1272;22695;-81
2022/06/30 03:26:18;;;;;;;7.00;1.80;;;;;;;18.75;88.08;100009.16;107786;1270;24060;-81
2022/06/30 03:28:49;;;;;;;7.20;1.70;;;;;;;18.78;87.98;100013.86;107787;1271;22589;-81
2022/06/30 03:31:21;;;;;;;6.30;1.80;;;;;;;18.81;88.18;100024.38;107631;1271;22550;-80
2022/06/30 03:33:54;;;;;;;6.50;1.60;;;;;;;18.84;88.19;100032.34;107937;1271;22535;-80
2022/06/30 03:36:25;;;;;;;6.30;1.50;;;;;;;18.88;87.96;100040.41;107819;1272;22548;-81
2022/06/30 03:38:59;;;;;;;9.00;2.10;;;;;;;18.91;88.11;100040.71;107660;1272;23076;-82
2022/06/30 03:41:33;;;;;;;6.00;2.00;;;;;;;18.90;88.25;100051.98;107583;1270;22544;-80
2022/06/30 03:44:05;;;;;;;6.90;2.40;;;;;;;18.89;88.27;100065.59;107532;1271;22605;-79
2022/06/30 03:46:37;;;;;;;10.10;2.00;;;;;;;18.88;88.47;100074.96;107596;1272;22598;-80
2022/06/30 03:49:09;;;;;;;5.80;1.70;;;;;;;18.87;88.48;100076.83;107582;1271;25316;-81
2022/06/30 03:51:40;;;;;;;7.30;2.10;;;;;;;18.88;88.48;100076.45;107612;1271;22625;-80
2022/06/30 03:54:11;;;;;;;8.30;2.00;;;;;;;18.90;88.33;100081.70;107360;1270;22816;-80
2022/06/30 03:56:42;;;;;;;6.60;2.10;;;;;;;18.95;88.57;100080.20;107332;1271;22602;-81
2022/06/30 03:59:14;;;;;;;7.80;2.30;;;;;;;18.98;88.52;100084.70;107638;1271;22552;-82
2022/06/30 04:01:45;;;;;;;7.30;1.80;;;;;;;19.02;88.75;100085.63;107672;1271;22600;-80
2022/06/30 04:04:16;;;;;;;8.00;2.40;;;;;;;19.03;88.65;100090.33;107699;1271;22573;-81
2022/06/30 04:06:48;;;;;;;6.50;2.20;;;;;;;19.07;88.94;100094.89;107684;1271;24082;-80
2022/06/30 04:09:19;;;;;;;7.90;2.10;;;;;;;19.09;89.00;100092.44;107743;1272;22557;-81
2022/06/30 04:11:50;;;;;;;10.80;2.30;;;;;;;19.08;89.13;100090.15;107801;1271;24405;-81
2022/06/30 04:14:21;;;;;;;12.70;2.80;;;;;;;19.07;89.09;100088.52;107676;1270;22550;-80
2022/06/30 04:16:52;;;;;;;8.60;2.60;;;;;;;19.09;89.17;100092.42;107297;1271;22569;-79
2022/06/30 04:19:25;;;;;;;8.70;2.80;;;;;;;19.12;89.25;100094.70;107513;1269;24240;-80
2022/06/30 04:21:58;;;;;;;12.40;3.30;;;;;;;19.15;89.19;100085.70;107466;1270;22594;-79
2022/06/30 04:24:29;;;;;;;10.10;2.70;;;;;;;19.20;89.40;100080.72;107309;1271;22548;-79
2022/06/30 04:27:01;;;;;;;8.40;2.10;;;;;;;19.24;89.49;100081.15;107399;1271;26610;-79
2022/06/30 04:29:32;;;;;;;10.10;2.80;;;;;;;19.26;89.38;100080.85;107318;1269;22605;-80
2022/06/30 04:34:53;;;;;;;7.60;2.40;;;;;;;19.33;89.42;100082.80;107463;1270;22644;-80
2022/06/30 04:37:24;;;;;;;9.60;2.40;;;;;;;19.38;89.44;100076.55;107843;1269;23387;-80
2022/06/30 04:41:23;;;;;;;7.00;2.30;;;;;;;19.41;89.50;100071.54;107892;1268;22570;-82
2022/06/30 04:42:50;;;;;;;8.20;2.70;;;;;;;19.45;89.73;100072.95;108178;1260;94239;-63
2022/06/30 04:45:22;;;;;;;9.20;3.00;;;;;;;19.50;89.97;100079.14;105527;1272;24355;-50
2022/06/30 04:47:54;;;;;;;11.40;3.50;;;;;;;19.52;89.90;100080.33;105621;1271;22563;-55
2022/06/30 04:50:26;;;;;;;9.20;3.10;;;;;;;19.55;89.86;100075.52;105825;1272;25244;-53
2022/06/30 04:52:57;;;;;;;14.80;3.20;;;;;;;19.59;89.73;100077.77;107220;1271;22563;-54
2022/06/30 04:55:29;;;;;;;11.90;4.80;;;;;;;19.63;89.89;100091.84;106906;1271;22668;-51
2022/06/30 04:58:00;;;;;;;16.00;3.90;;;;;;;19.68;90.35;100100.69;105802;1271;25376;-54
2022/06/30 05:00:33;;;;;;;11.70;3.10;;;;;;;19.72;90.50;100097.16;105849;1271;22556;-51
2022/06/30 05:03:04;;;;;;;12.30;3.80;;;;;;;19.78;90.82;100093.69;105689;1271;23072;-53
2022/06/30 05:05:36;;;;;;;8.80;2.70;;;;;;;19.82;90.58;100092.02;105765;1271;25642;-57
2022/06/30 05:08:08;;;;;;;9.00;2.70;;;;;;;19.85;90.67;100081.84;105806;1271;24292;-54
2022/06/30 05:10:40;;;;;;;8.10;2.40;;;;;;;19.91;90.68;100078.95;105799;1271;22585;-51
2022/06/30 05:13:11;;;;;;;9.90;2.50;;;;;;;19.98;90.69;100082.77;106887;1271;22554;-53
2022/06/30 05:15:43;;;;;;;11.00;2.40;;;;;;;20.06;91.05;100089.38;105773;1271;25194;-50
2022/06/30 05:18:15;;;;;;;7.90;2.60;;;;;;;20.16;91.00;100097.98;105764;1272;23194;-50
2022/06/30 05:20:46;;;;;;;7.30;2.10;;;;;;;20.20;90.65;100094.46;105819;1272;22598;-50
2022/06/30 05:23:18;;;;;;;10.50;2.60;;;;;;;20.22;90.33;100083.91;105764;1272;25244;-54
2022/06/30 05:28:39;;;;;;;11.20;2.30;;;;;;;20.22;89.87;100073.66;105844;1272;25488;-52
2022/06/30 05:31:10;;;;;;;7.60;2.00;;;;;;;20.26;89.96;100070.89;105849;1272;22573;-51
2022/06/30 05:33:42;;;;;;;10.10;2.50;;;;;;;20.29;89.88;100063.85;105726;1272;23379;-53
2022/06/30 05:36:14;;;;;;;8.00;1.80;;;;;;;20.31;89.49;100066.73;105663;1272;25381;-52
2022/06/30 05:38:45;;;;;;;8.90;3.00;;;;;;;20.29;89.03;100063.70;105840;1272;22544;-52
2022/06/30 05:41:17;;;;;;;9.90;2.20;;;;;;;20.24;88.92;100064.13;105728;1272;22540;-51
2022/06/30 05:43:51;;;;;;;8.20;2.00;;;;;;;20.21;88.66;100066.73;105835;1272;22533;-51
2022/06/30 05:46:24;;;;;;;7.20;2.00;;;;;;;20.22;88.85;100069.63;105795;1271;22540;-51
2022/06/30 05:48:56;;;;;;;9.20;2.30;;;;;;;20.25;88.93;100069.73;105856;1272;25347;-52
2022/06/30 05:51:28;;;;;;;12.00;3.00;;;;;;;20.27;89.05;100071.31;105943;1271;25505;-55
2022/06/30 05:54:00;;;;;;;8.00;2.50;;;;;;;20.30;88.84;100068.27;105693;1271;22597;-53
2022/06/30 05:56:31;;;;;;;12.40;3.00;;;;;;;20.30;88.82;100069.81;105760;1271;25418;-53
2022/06/30 05:59:03;;;;;;;7.00;2.20;;;;;;;20.34;89.15;100071.47;105894;1271;24564;-53
2022/06/30 06:01:35;;;;;;;10.50;2.40;;;;;;;20.43;89.84;100072.19;105878;1269;22555;-53
2022/06/30 06:04:07;;;;;;;12.00;3.60;;;;;;;20.51;89.83;100075.41;105867;1271;22590;-54
2022/06/30 06:06:38;;;;;;;9.30;2.80;;;;;;;20.61;90.31;100076.12;105827;1271;22785;-54
2022/06/30 06:09:10;;;;;;;10.60;3.80;;;;;;;20.68;89.30;100066.36;105965;1271;25523;-50
2022/06/30 06:11:42;;;;;;;9.30;3.50;;;;;;;20.72;89.48;100065.55;105953;1271;25823;-52
2022/06/30 06:14:19;;;;;;;12.00;3.40;;;;;;;20.75;89.20;100064.37;105864;1272;25377;-52
2022/06/30 06:16:50;;;;;;;9.40;3.50;;;;;;;20.81;89.17;100065.71;105756;1272;25484;-56
2022/06/30 06:19:23;;;;;;;9.20;2.90;;;;;;;20.91;89.64;100066.45;105781;1272;22675;-51
2022/06/30 06:21:55;;;;;;;11.70;2.80;;;;;;;21.00;89.09;100064.06;105925;1272;24432;-55
2022/06/30 06:24:27;;;;;;;10.00;2.80;;;;;;;21.06;88.57;100061.55;105715;1272;25578;-54
2022/06/30 06:26:58;;;;;;;15.60;4.30;;;;;;;21.10;87.87;100060.26;105783;1270;25344;-55
2022/06/30 06:29:30;;;;;;;10.80;3.70;;;;;;;21.13;87.76;100061.77;105733;1272;24425;-52
2022/06/30 06:32:02;;;;;;;8.60;2.60;;;;;;;21.17;88.10;100055.73;105917;1272;23797;-55
2022/06/30 06:34:34;;;;;;;10.70;2.80;;;;;;;21.22;88.25;100060.64;105951;1271;26591;-53
2022/06/30 06:37:06;;;;;;;8.60;2.10;;;;;;;21.28;88.05;100062.96;105747;1271;24232;-53
2022/06/30 06:39:38;;;;;;;8.90;3.50;;;;;;;21.33;87.78;100064.84;105774;1271;22534;-53
2022/06/30 06:42:11;;;;;;;11.30;2.70;;;;;;;21.38;88.31;100062.70;105721;1272;25541;-54
2022/06/30 06:44:43;;;;;;;8.90;2.50;;;;;;;21.40;87.82;100066.25;106005;1271;24429;-52
2022/06/30 06:47:16;;;;;;;6.50;2.20;;;;;;;21.39;87.46;100067.96;105830;1271;25605;-54
2022/06/30 06:49:48;;;;;;;7.60;2.60;;;;;;;21.42;87.28;100077.70;105997;1270;22535;-54
2022/06/30 06:52:20;;;;;;;13.70;2.70;;;;;;;21.49;87.59;100080.23;105811;1271;22680;-52
2022/06/30 06:54:52;;;;;;;11.90;3.10;;;;;;;21.57;87.90;100084.38;105778;1271;25206;-49
2022/06/30 06:57:25;;;;;;;10.10;3.30;;;;;;;21.65;87.91;100085.04;105956;1272;24272;-54
2022/06/30 06:59:58;;;;;;;9.10;2.90;;;;;;;21.76;87.82;100077.02;105718;1272;22623;-54
2022/06/30 07:02:30;;;;;;;8.90;2.70;;;;;;;21.84;86.92;100073.64;105780;1270;25351;-52
2022/06/30 07:05:01;;;;;;;8.20;2.70;;;;;;;21.92;87.37;100070.75;105775;1271;22528;-54
2022/06/30 07:07:33;;;;;;;9.70;2.30;;;;;;;22.02;87.53;100070.34;106327;1271;26761;-56
2022/06/30 07:10:07;;;;;;;10.60;3.00;;;;;;;22.15;87.27;100062.61;105717;1271;22550;-52
2022/06/30 07:12:39;;;;;;;8.60;3.30;;;;;;;22.23;86.18;100064.88;106064;1271;22538;-54
2022/06/30 07:15:13;;;;;;;8.80;2.40;;;;;;;22.25;85.63;100062.48;105922;1271;22795;-53
2022/06/30 07:17:45;;;;;;;10.50;3.30;;;;;;;22.24;86.06;100058.16;105897;1271;22675;-55
2022/06/30 07:20:17;;;;;;;9.00;3.00;;;;;;;22.30;86.29;100061.18;105967;1272;26518;-54
2022/06/30 07:22:49;;;;;;;9.90;2.80;;;;;;;22.41;86.19;100054.67;106129;1271;23235;-56
2022/06/30 07:25:21;;;;;;;12.70;3.30;;;;;;;22.51;85.68;100050.87;105761;1271;22542;-53
2022/06/30 07:30:42;;;;;;;9.40;3.70;;;;;;;22.71;85.89;100049.02;105857;1272;22860;-54
2022/06/30 07:33:18;;;;;;;9.90;3.10;;;;;;;22.81;85.48;100046.67;105836;1271;25272;-54
2022/06/30 07:35:51;;;;;;;9.20;3.40;;;;;;;22.88;85.35;100048.77;105929;1271;22704;-55
2022/06/30 07:41:14;;;;;;;9.10;3.60;;;;;;;23.06;84.03;100049.85;105774;1272;23197;-55
2022/06/30 07:43:47;;;;;;;11.50;3.10;;;;;;;23.15;83.87;100054.89;105912;1271;22549;-55
2022/06/30 07:46:19;;;;;;;8.20;3.00;;;;;;;23.25;84.51;100058.22;105689;1270;22793;-53
2022/06/30 07:48:51;;;;;;;9.00;3.10;;;;;;;23.38;84.53;100063.70;105928;1271;24471;-55
2022/06/30 07:54:12;;;;;;;12.20;3.30;;;;;;;23.55;83.65;100073.67;105764;1270;22611;-52
2022/06/30 07:56:44;;;;;;;9.20;3.50;;;;;;;23.61;82.59;100073.66;105900;1270;25412;-51
2022/06/30 07:59:17;;;;;;;8.70;3.20;;;;;;;23.70;83.55;100069.00;105791;1272;26532;-53
2022/06/30 08:01:49;;;;;;;16.10;4.40;;;;;;;23.83;83.28;100065.08;105989;1271;22544;-50
2022/06/30 08:07:17;;;;;;;7.00;2.90;;;;;;;23.96;82.30;100072.14;105604;1272;22577;-52
2022/06/30 08:09:49;;;;;;;;;;;;;;;24.05;82.40;100073.30;105882;1271;24367;-56
2022/06/30 08:12:21;;;;;;;8.80;3.80;;;;;;;24.11;81.35;100072.22;105787;1271;24375;-53
2022/06/30 08:14:55;;;;;;;9.20;4.20;;;;;;;24.17;81.76;100066.71;105887;1271;26682;-55
2022/06/30 08:17:30;;;;;;;8.70;3.90;;;;;;;24.24;81.28;100061.73;106034;1269;26144;-57
2022/06/30 08:20:08;;;;;;;10.20;4.10;;;;;;;24.32;80.47;100066.67;105901;1271;25241;-55
2022/06/30 08:22:40;;;;;;;11.40;4.70;;;;;;;24.37;80.67;100068.13;108104;1271;23930;-54
2022/06/30 08:25:12;;;;;;;12.20;5.40;;;;;;;24.49;81.08;100066.18;105853;1269;25534;-53
2022/06/30 08:27:44;;;;;;;12.30;4.40;;;;;;;24.57;79.98;100057.49;105674;1271;22859;-55
2022/06/30 08:30:16;;;;;;;14.30;4.80;;;;;;;24.66;80.01;100049.85;108034;1269;25273;-52
2022/06/30 08:32:48;;;;;;;10.80;4.60;;;;;;;24.78;80.14;100045.98;105868;1270;22555;-54
2022/06/30 08:35:20;;;;;;;11.80;4.90;;;;;;;24.93;79.63;100045.51;106836;1271;25330;-51
2022/06/30 08:37:54;;;;;;;11.20;5.30;;;;;;;25.04;78.99;100044.88;107284;1271;24232;-55
2022/06/30 08:43:17;;;;;;;10.20;4.80;;;;;;;25.24;78.03;100047.46;105978;1271;22554;-52
2022/06/30 08:45:49;;;;;;;13.70;5.30;;;;;;;25.33;77.53;100049.46;105981;1271;22695;-51
2022/06/30 08:48:21;;;;;;;12.80;5.50;;;;;;;25.40;77.74;100045.12;105847;1271;22580;-53
2022/06/30 08:50:59;;;;;;;15.40;6.40;;;;;;;25.49;77.21;100037.17;105969;1271;22711;-54
2022/06/30 08:53:42;;;;;;;18.40;7.10;;;;;;;25.61;76.98;100032.31;105949;1271;24195;-55
2022/06/30 08:56:16;;;;;;;13.30;5.20;;;;;;;25.72;77.11;100024.75;105775;1271;25377;-52
2022/06/30 08:58:51;;;;;;;14.10;5.40;;;;;;;25.83;76.24;100027.17;105833;1271;24153;-54
2022/06/30 09:01:27;;;;;;;11.00;5.60;;;;;;;25.83;75.22;100024.32;105733;1271;22691;-57
2022/06/30 09:04:02;;;;;;;12.30;5.40;;;;;;;25.84;74.86;100030.17;105727;1271;24235;-54
2022/06/30 09:09:24;;;;;;;12.30;6.00;;;;;;;25.99;74.75;100032.95;105596;1271;24296;-55
2022/06/30 09:11:58;;;;;;;11.90;5.40;;;;;;;26.01;73.89;100028.45;106006;1271;22706;-53
2022/06/30 09:14:41;;;;;;;12.50;6.20;;;;;;;26.09;74.40;100029.97;105922;1271;25306;-55
2022/06/30 09:17:17;;;;;;;10.40;5.70;;;;;;;26.19;73.60;100026.00;105762;1271;24287;-53
2022/06/30 09:22:46;;;;;;;13.20;6.70;;;;;;;26.33;72.56;100024.27;105928;1271;25386;-55
2022/06/30 09:25:22;;;;;;;11.50;5.50;;;;;;;26.38;72.13;100025.58;105975;1271;25233;-55
2022/06/30 09:27:56;;;;;;;14.00;6.90;;;;;;;26.43;71.97;100027.55;105860;1271;22617;-54
2022/06/30 09:33:22;;;;;;;13.80;6.30;;;;;;;26.64;71.31;100036.17;105705;1272;22857;-54
2022/06/30 09:35:54;;;;;;;12.30;6.20;;;;;;;26.74;71.08;100029.14;105746;1271;22550;-54
2022/06/30 09:38:26;;;;;;;14.20;6.20;;;;;;;26.86;70.87;100026.23;105733;1271;22613;-56
2022/06/30 09:41:06;;;;;;;12.00;6.20;;;;;;;26.88;69.74;100026.09;105992;1271;23195;-56
2022/06/30 09:43:41;;;;;;;11.80;6.10;;;;;;;26.89;69.23;100022.02;106133;1271;22569;-54
2022/06/30 09:46:13;;;;;;;9.70;5.00;;;;;;;26.93;69.61;100019.06;105768;1271;25250;-54
2022/06/30 09:51:41;;;;;;;13.00;5.50;;;;;;;27.16;69.14;100016.77;105692;1271;25456;-54
2022/06/30 09:54:13;;;;;;;12.00;6.30;;;;;;;27.28;68.71;100018.98;105860;1272;24221;-55
2022/06/30 09:57:01;;;;;;;14.90;5.70;;;;;;;27.36;67.62;100019.48;105921;1271;22550;-55
2022/06/30 09:59:32;;;;;;;11.00;5.20;;;;;;;27.34;67.38;100012.70;105964;1271;25262;-56
2022/06/30 10:02:07;;;;;;;11.80;5.20;;;;;;;27.42;67.74;100009.33;105788;1270;22560;-53
2022/06/30 10:04:55;;;;;;;12.10;5.70;;;;;;;27.53;67.32;100012.71;105909;1271;22714;-52
2022/06/30 10:07:33;;;;;;;12.30;5.50;;;;;;;27.59;66.43;100014.03;106262;1271;22537;-55
2022/06/30 10:12:57;;;;;;;10.60;5.30;;;;;;;27.61;66.01;100006.60;105371;1276;24300;-53
2022/06/30 10:15:38;;;;;;;14.20;6.00;;;;;;;27.66;65.43;100004.39;105600;1275;22589;-52
2022/06/30 10:18:10;;;;;;;12.90;6.30;;;;;;;27.58;64.47;100000.35;105541;1276;25656;-57
2022/06/30 10:20:45;;;;;;;11.90;5.20;;;;;;;27.53;64.99;99999.66;105524;1276;22622;-57
2022/06/30 10:23:19;;;;;;;11.30;5.50;;;;;;;27.57;64.87;100001.56;105473;1275;22713;-56
2022/06/30 10:25:52;;;;;;;10.30;5.20;;;;;;;27.60;64.77;99996.91;105367;1275;26757;-52
2022/06/30 10:28:27;;;;;;;12.40;5.30;;;;;;;27.67;64.87;99991.84;105463;1274;23177;-56
2022/06/30 10:31:16;;;;;;;10.90;5.00;;;;;;;27.75;64.65;99982.82;105636;1276;25480;-57
2022/06/30 10:33:53;;;;;;;11.60;5.60;;;;;;;27.88;64.68;99984.77;105473;1278;25305;-54
2022/06/30 10:36:31;;;;;;;10.60;4.60;;;;;;;28.00;64.58;99983.42;105593;1277;22704;-55
2022/06/30 10:39:08;;;;;;;11.10;4.60;;;;;;;28.09;64.03;99985.17;105396;1278;22832;-55
2022/06/30 10:41:47;;;;;;;10.40;4.80;;;;;;;28.16;63.63;99986.25;105545;1275;22734;-55
2022/06/30 10:44:23;;;;;;;11.70;4.80;;;;;;;28.22;63.32;99984.65;106183;1262;22518;-63
2022/06/30 10:47:12;;;;;;;13.10;5.30;;;;;;;28.28;63.10;99985.11;105715;1272;22569;-66
2022/06/30 10:49:59;;;;;;;8.80;4.50;;;;;;;28.37;63.16;99983.78;105941;1271;24330;-67
2022/06/30 10:52:34;;;;;;;12.00;3.70;;;;;;;28.46;62.67;99979.80;106014;1271;22638;-66
2022/06/30 10:55:14;;;;;;;10.00;4.10;;;;;;;28.54;62.55;99979.09;105985;1271;22694;-67
2022/06/30 10:58:08;;;;;;;10.10;4.60;;;;;;;28.62;61.95;99982.71;105845;1271;24239;-67
2022/06/30 11:01:01;;;;;;;11.40;4.30;;;;;;;28.65;61.55;99982.63;105921;1271;23103;-66
2022/06/30 11:04:02;;;;;;;7.80;3.90;;;;;;;28.71;61.54;99984.08;105781;1271;24287;-67
2022/06/30 11:07:08;;;;;;;12.20;4.80;;;;;;;28.79;61.35;99981.59;105740;1271;22584;-66
2022/06/30 11:10:17;;;;;;;14.40;4.10;;;;;;;28.87;60.92;99977.36;105485;1278;24376;-65
2022/06/30 11:13:09;;;;;;;9.70;4.50;;;;;;;28.89;59.57;99978.84;105614;1278;24331;-66
2022/06/30 11:16:00;;;;;;;9.00;4.10;;;;;;;28.85;59.34;99976.38;105449;1278;22586;-67
2022/06/30 11:18:37;;;;;;;10.70;4.30;;;;;;;28.75;58.77;99972.30;105464;1278;24402;-67
2022/06/30 11:21:10;;;;;;;11.30;4.60;;;;;;;28.72;59.33;99975.94;105769;1277;25490;-66
2022/06/30 11:23:44;;;;;;;8.60;4.00;;;;;;;28.76;58.63;99976.77;105531;1278;24243;-67
2022/06/30 11:29:14;;;;;;;9.90;3.90;;;;;;;28.98;58.57;99973.38;105556;1278;26034;-66
2022/06/30 11:31:46;;;;;;;9.50;3.80;;;;;;;29.09;58.54;99971.72;105626;1278;25283;-66
2022/06/30 11:34:20;;;;;;;11.30;4.10;;;;;;;29.14;57.58;99970.52;105668;1278;22566;-67
2022/06/30 11:36:53;;;;;;;9.80;4.00;;;;;;;29.13;56.95;99970.55;105589;1278;22846;-66
2022/06/30 11:39:26;;;;;;;8.20;3.50;;;;;;;29.17;56.78;99968.52;105686;1278;25326;-65
2022/06/30 11:41:59;;;;;;;8.40;4.20;;;;;;;29.13;56.63;99967.39;105621;1278;24017;-67
2022/06/30 11:44:33;;;;;;;7.70;3.40;;;;;;;29.20;56.06;99966.88;105797;1271;25342;-66
2022/06/30 11:47:07;;;;;;;9.20;4.20;;;;;;;29.25;56.39;99968.12;105862;1271;23043;-66
2022/06/30 11:49:45;;;;;;;7.20;3.40;;;;;;;29.30;56.20;99962.10;105837;1271;22702;-67
2022/06/30 11:52:20;;;;;;;5.70;2.60;;;;;;;29.34;56.14;99962.09;105727;1271;22569;-66
2022/06/30 11:54:54;;;;;;;7.50;3.30;;;;;;;29.39;55.67;99957.40;106026;1271;22577;-67
2022/06/30 11:57:27;;;;;;;8.10;3.50;;;;;;;29.43;55.06;99958.22;106137;1271;22619;-66
2022/06/30 12:00:02;;;;;;;7.70;3.30;;;;;;;29.45;54.61;99959.18;105819;1271;25434;-66
2022/06/30 12:02:34;;;;;;;10.10;3.60;;;;;;;29.45;54.62;99958.84;107937;1271;23396;-67
2022/06/30 12:05:10;;;;;;;7.20;3.20;;;;;;;29.48;54.36;99959.84;105742;1271;24427;-67
2022/06/30 12:07:43;;;;;;;8.80;3.40;;;;;;;29.53;54.13;99963.61;105796;1272;23741;-67
2022/06/30 12:10:18;;;;;;;13.20;5.00;;;;;;;29.58;54.04;99960.39;105711;1271;22580;-67
2022/06/30 12:12:50;;;;;;;8.50;3.90;;;;;;;29.65;54.03;99960.09;101689;1271;22541;-66
2022/06/30 12:15:24;;;;;;;9.50;3.90;;;;;;;29.72;53.82;99955.67;105818;1271;24275;-66
2022/06/30 12:17:56;;;;;;;10.40;3.30;;;;;;;29.77;53.51;99954.72;105776;1271;22563;-66
2022/06/30 12:20:30;;;;;;;8.00;3.60;;;;;;;29.85;53.54;99953.82;105867;1271;22581;-66
2022/06/30 12:23:03;;;;;;;7.70;3.20;;;;;;;29.95;52.81;99954.27;106062;1271;26398;-66
2022/06/30 12:25:37;;;;;;;7.90;2.80;;;;;;;29.91;51.34;99948.18;105804;1271;23009;-67
2022/06/30 12:28:10;;;;;;;7.00;3.10;;;;;;;29.86;51.75;99942.06;105912;1271;23046;-67
2022/06/30 12:30:42;;;;;;;9.50;2.80;;;;;;;29.90;51.80;99942.61;105982;1271;24446;-67
2022/06/30 12:33:14;;;;;;;12.10;3.90;;;;;;;29.97;51.28;99931.41;105787;1271;24940;-67